Time;durP1;ratioP1;P1;durP2;ratioP2;P2;SDS_P1;SDS_P2;PMS_P1;PMS_P2;Temp;Humidity;BMP_temperature;BMP_pressure;BME280_temperature;BME280_humidity;BME280_pressure;Samples;Min_cycle;Max_cycle;Signal;HPM_P1;HPM_P2
2023/12/19 00:01:20;;;;;;;83.10;57.15;;;;;;;10.69;nan;99335.81;5025575;28;20103;-74
2023/12/19 00:03:50;;;;;;;85.20;57.28;;;;;;;10.78;nan;99352.47;5026083;28;20053;-75
2023/12/19 00:06:19;;;;;;;88.30;57.35;;;;;;;10.74;nan;99340.56;5026126;28;20084;-74
2023/12/19 00:08:48;;;;;;;86.90;57.47;;;;;;;10.87;nan;99332.03;5022179;28;20041;-75
2023/12/19 00:11:18;;;;;;;100.93;56.65;;;;;;;10.73;nan;99338.91;5033350;28;20037;-75
2023/12/19 00:13:47;;;;;;;88.55;57.55;;;;;;;10.55;nan;99360.41;5027938;28;20058;-75
2023/12/19 00:16:17;;;;;;;91.05;56.15;;;;;;;10.74;nan;99359.94;5040157;28;20420;-74
2023/12/19 00:18:47;;;;;;;79.53;54.92;;;;;;;10.79;nan;99365.53;5025176;28;20053;-74
2023/12/19 00:21:17;;;;;;;80.10;55.60;;;;;;;10.76;nan;99368.53;5023400;28;20037;-75
2023/12/19 00:23:46;;;;;;;80.75;55.17;;;;;;;10.59;nan;99377.59;5035439;28;20038;-75
2023/12/19 00:26:16;;;;;;;83.47;55.55;;;;;;;10.55;nan;99372.81;5024509;28;20045;-75
2023/12/19 00:28:46;;;;;;;80.97;53.05;;;;;;;10.43;nan;99377.72;5025462;28;20045;-75
2023/12/19 00:31:22;;;;;;;82.43;54.90;;;;;;;10.46;nan;99369.41;5027995;28;20045;-74
2023/12/19 00:33:52;;;;;;;80.28;53.58;;;;;;;10.52;nan;99366.06;5025450;28;20053;-74
2023/12/19 00:36:23;;;;;;;79.95;55.40;;;;;;;10.42;nan;99385.81;5023881;28;20060;-75
2023/12/19 00:38:52;;;;;;;80.43;55.95;;;;;;;10.62;nan;99371.94;5025784;28;20065;-75
2023/12/19 00:41:22;;;;;;;88.28;57.33;;;;;;;10.64;nan;99369.94;5041546;28;20135;-75
2023/12/19 00:43:51;;;;;;;91.35;59.10;;;;;;;10.62;nan;99371.94;5014071;28;20065;-74
2023/12/19 00:46:21;;;;;;;84.95;58.17;;;;;;;10.67;nan;99368.75;5032843;28;20132;-74
2023/12/19 00:48:51;;;;;;;95.00;57.65;;;;;;;10.51;nan;99375.00;5020273;28;20057;-74
2023/12/19 00:51:26;;;;;;;96.93;57.70;;;;;;;10.29;nan;99363.38;5024620;28;20048;-74
2023/12/19 00:53:58;;;;;;;92.00;60.45;;;;;;;10.27;nan;99368.03;5057377;28;20111;-74
2023/12/19 00:56:27;;;;;;;91.93;61.80;;;;;;;10.14;nan;99377.50;5025438;28;20049;-75
2023/12/19 00:58:57;;;;;;;89.57;61.17;;;;;;;10.19;nan;99364.59;5021313;28;20152;-75
2023/12/19 01:01:27;;;;;;;91.22;61.78;;;;;;;10.29;nan;99373.16;5025269;28;20418;-75
2023/12/19 01:03:56;;;;;;;101.57;65.28;;;;;;;10.49;nan;99384.94;5025393;28;20054;-74
2023/12/19 01:06:26;;;;;;;94.22;63.03;;;;;;;10.52;nan;99387.25;5025392;28;20060;-74
2023/12/19 01:08:56;;;;;;;99.80;62.97;;;;;;;10.53;nan;99391.56;5035152;28;20049;-74
2023/12/19 01:11:25;;;;;;;96.93;64.10;;;;;;;10.46;nan;99395.88;5025152;28;20060;-75
2023/12/19 01:13:55;;;;;;;98.38;66.30;;;;;;;10.51;nan;99406.78;5024845;28;20614;-74
2023/12/19 01:16:24;;;;;;;94.88;63.17;;;;;;;10.42;nan;99401.69;5025169;28;20484;-74
2023/12/19 01:18:54;;;;;;;99.38;62.70;;;;;;;10.21;nan;99411.09;5033934;28;20054;-74
2023/12/19 01:21:24;;;;;;;108.32;69.65;;;;;;;10.20;nan;99421.84;5022823;28;20045;-74
2023/12/19 01:23:53;;;;;;;97.05;66.15;;;;;;;10.19;nan;99428.94;5030999;28;20069;-74
2023/12/19 01:26:23;;;;;;;105.25;65.28;;;;;;;10.17;nan;99425.66;5034041;28;20053;-74
2023/12/19 01:28:57;;;;;;;93.85;64.10;;;;;;;10.04;nan;99430.66;5017889;28;20100;-75
2023/12/19 01:31:26;;;;;;;111.18;67.43;;;;;;;9.92;nan;99429.34;5009182;28;20686;-74
2023/12/19 01:33:57;;;;;;;105.25;66.75;;;;;;;9.76;nan;99438.16;5024283;28;20049;-75
2023/12/19 01:36:26;;;;;;;102.18;65.10;;;;;;;9.68;nan;99448.78;5023390;28;20037;-74
2023/12/19 01:38:56;;;;;;;94.45;63.67;;;;;;;9.95;nan;99444.06;5033938;28;20045;-75
2023/12/19 01:41:26;;;;;;;105.57;66.20;;;;;;;9.93;nan;99445.06;5024710;28;20368;-75
2023/12/19 01:43:59;;;;;;;105.10;64.78;;;;;;;9.88;nan;99452.69;5024704;28;20068;-75
2023/12/19 01:46:29;;;;;;;107.57;66.30;;;;;;;9.90;nan;99456.00;5040564;28;20034;-74
2023/12/19 01:49:00;;;;;;;93.18;65.47;;;;;;;9.83;nan;99470.03;5029176;28;20052;-74
2023/12/19 01:51:31;;;;;;;105.18;65.70;;;;;;;9.83;nan;99473.53;5024148;28;20044;-74
2023/12/19 01:54:07;;;;;;;109.47;66.68;;;;;;;9.89;nan;99475.50;5023258;28;20361;-74
2023/12/19 01:56:37;;;;;;;103.40;67.53;;;;;;;9.70;nan;99475.03;5003453;28;20444;-74
2023/12/19 01:59:07;;;;;;;104.32;68.13;;;;;;;9.70;nan;99473.22;5018253;28;20061;-74
2023/12/19 02:01:38;;;;;;;109.35;70.85;;;;;;;9.96;nan;99469.53;5025135;28;20046;-74
2023/12/19 02:04:10;;;;;;;117.60;74.85;;;;;;;9.71;nan;99485.47;5024506;28;20054;-73
2023/12/19 02:06:39;;;;;;;121.68;73.68;;;;;;;9.70;nan;99481.16;5012396;28;20049;-74
2023/12/19 02:09:09;;;;;;;123.63;77.90;;;;;;;9.76;nan;99484.94;5024581;28;20057;-74
2023/12/19 02:11:38;;;;;;;122.57;77.95;;;;;;;9.84;nan;99479.63;5024013;28;20053;-74
2023/12/19 02:14:08;;;;;;;126.95;83.18;;;;;;;9.97;nan;99485.22;5019283;28;20045;-74
2023/12/19 02:16:38;;;;;;;133.38;86.97;;;;;;;9.92;nan;99488.38;5014516;28;20049;-73
2023/12/19 02:19:07;;;;;;;141.40;86.90;;;;;;;10.11;nan;99494.28;5023909;28;20150;-72
2023/12/19 02:21:37;;;;;;;149.40;92.28;;;;;;;10.17;nan;99499.78;5017756;28;20049;-72
2023/12/19 02:24:07;;;;;;;146.60;89.50;;;;;;;10.10;nan;99511.16;5024016;28;20077;-72
2023/12/19 02:26:36;;;;;;;158.63;90.20;;;;;;;10.05;nan;99508.19;5023130;28;20476;-73
2023/12/19 02:29:06;;;;;;;138.48;87.95;;;;;;;10.17;nan;99505.06;5023654;28;20346;-72
2023/12/19 02:31:35;;;;;;;132.23;84.78;;;;;;;10.16;nan;99507.88;5023368;28;20052;-73
2023/12/19 02:34:05;;;;;;;136.40;86.93;;;;;;;10.30;nan;99510.66;5024496;28;20056;-72
2023/12/19 02:36:36;;;;;;;144.82;88.28;;;;;;;10.31;nan;99514.13;5025108;28;20049;-73
2023/12/19 02:39:06;;;;;;;137.23;88.10;;;;;;;10.26;nan;99519.09;5020325;28;20042;-72
2023/12/19 02:41:35;;;;;;;139.05;87.70;;;;;;;10.28;nan;99517.09;5020405;28;20046;-72
2023/12/19 02:44:05;;;;;;;133.95;89.15;;;;;;;10.38;nan;99520.38;5024167;28;20049;-72
2023/12/19 02:46:34;;;;;;;143.75;89.35;;;;;;;10.48;nan;99522.84;5024951;28;20489;-74
2023/12/19 02:49:03;;;;;;;143.57;92.63;;;;;;;10.66;nan;99523.44;5024138;28;20045;-73
2023/12/19 02:51:33;;;;;;;150.13;99.43;;;;;;;10.76;nan;99527.50;5023495;28;20184;-75
2023/12/19 02:54:03;;;;;;;166.13;102.95;;;;;;;10.75;nan;99520.53;5023129;28;20489;-73
2023/12/19 02:56:34;;;;;;;172.82;110.25;;;;;;;10.96;nan;99527.06;5023447;28;20049;-74
2023/12/19 02:59:03;;;;;;;174.38;111.82;;;;;;;10.92;nan;99536.38;5028455;28;20052;-73
2023/12/19 03:01:33;;;;;;;156.45;102.95;;;;;;;10.92;nan;99537.19;5022563;28;20056;-74
2023/12/19 03:04:03;;;;;;;175.90;108.55;;;;;;;11.11;nan;99538.56;5023370;28;20057;-73
2023/12/19 03:06:32;;;;;;;186.45;112.75;;;;;;;11.32;nan;99544.06;5018253;28;20045;-73
2023/12/19 03:09:02;;;;;;;193.10;112.60;;;;;;;11.28;nan;99540.91;5025735;28;20050;-73
2023/12/19 03:11:31;;;;;;;189.98;109.95;;;;;;;11.47;nan;99547.59;5004376;28;20517;-73
2023/12/19 03:14:01;;;;;;;182.38;112.55;;;;;;;11.46;nan;99547.78;5009571;28;20122;-73
2023/12/19 03:16:30;;;;;;;192.23;114.97;;;;;;;11.61;nan;99549.47;5024254;28;20067;-74
2023/12/19 03:18:59;;;;;;;183.98;115.55;;;;;;;11.96;nan;99540.06;5024884;28;20113;-74
2023/12/19 03:21:29;;;;;;;226.57;132.35;;;;;;;12.24;nan;99550.91;5027562;28;20041;-74
2023/12/19 03:23:59;;;;;;;230.20;144.15;;;;;;;12.37;nan;99547.63;5025330;28;20056;-75
2023/12/19 03:26:28;;;;;;;222.40;143.43;;;;;;;12.75;nan;99537.69;5025941;28;20049;-74
2023/12/19 03:28:57;;;;;;;217.93;134.40;;;;;;;13.28;nan;99541.78;5022440;28;20037;-74
2023/12/19 03:31:27;;;;;;;209.18;128.48;;;;;;;13.75;nan;99547.38;5025407;28;20053;-73
2023/12/19 03:33:57;;;;;;;195.15;126.15;;;;;;;14.16;nan;99552.78;5024670;28;20052;-74
2023/12/19 03:36:26;;;;;;;195.00;121.50;;;;;;;14.70;nan;99554.78;5040898;28;20049;-74
2023/12/19 03:38:55;;;;;;;184.07;114.50;;;;;;;15.26;nan;99564.25;5026314;28;20057;-75
2023/12/19 03:41:25;;;;;;;170.90;109.10;;;;;;;15.57;nan;99562.91;5014637;28;20485;-75
2023/12/19 03:43:54;;;;;;;178.80;109.47;;;;;;;15.73;nan;99567.84;5025941;28;20480;-74
2023/12/19 03:46:24;;;;;;;169.27;103.47;;;;;;;16.22;nan;99580.78;5014775;28;20041;-74
2023/12/19 03:48:53;;;;;;;164.77;101.03;;;;;;;16.88;nan;99575.31;5027397;28;20041;-75
2023/12/19 03:51:23;;;;;;;150.52;96.55;;;;;;;16.86;nan;99586.22;5027348;28;20049;-75
2023/12/19 03:53:53;;;;;;;146.20;92.95;;;;;;;17.42;nan;99583.72;5026649;28;20056;-75
2023/12/19 03:56:22;;;;;;;140.88;92.68;;;;;;;17.66;nan;99590.16;5026623;28;20730;-74
2023/12/19 03:58:52;;;;;;;151.25;90.38;;;;;;;17.72;nan;99592.00;5025889;28;20401;-75
2023/12/19 04:01:23;;;;;;;146.02;89.97;;;;;;;18.10;nan;99596.47;5026644;28;20053;-75
2023/12/19 04:03:53;;;;;;;142.80;87.88;;;;;;;18.61;nan;99607.75;5026060;28;20064;-74
2023/12/19 04:06:22;;;;;;;136.95;88.15;;;;;;;18.57;nan;99609.25;5024581;28;20107;-74
2023/12/19 04:08:52;;;;;;;124.63;84.20;;;;;;;18.64;nan;99620.72;5021069;28;20474;-75
2023/12/19 04:11:21;;;;;;;130.88;83.10;;;;;;;18.87;nan;99614.72;5021716;28;20061;-74
2023/12/19 04:13:51;;;;;;;125.72;79.78;;;;;;;19.63;nan;99627.63;5023847;28;20057;-74
2023/12/19 04:16:20;;;;;;;113.70;75.47;;;;;;;20.00;nan;99621.06;5021325;28;20157;-73
2023/12/19 04:18:50;;;;;;;113.40;75.32;;;;;;;19.72;nan;99621.69;5022376;28;20056;-73
2023/12/19 04:21:19;;;;;;;114.40;75.03;;;;;;;19.99;nan;99621.31;5022560;28;21446;-74
2023/12/19 04:23:49;;;;;;;107.97;75.93;;;;;;;20.18;nan;99625.53;5022064;28;20049;-74
2023/12/19 04:26:19;;;;;;;108.93;72.57;;;;;;;20.24;nan;99619.22;5032839;28;20060;-76
2023/12/19 04:28:49;;;;;;;109.82;74.50;;;;;;;19.70;nan;99621.09;5021095;28;20780;-71
2023/12/19 04:31:18;;;;;;;107.00;70.13;;;;;;;20.30;nan;99615.66;5024006;28;20060;-72
2023/12/19 04:33:48;;;;;;;120.88;73.65;;;;;;;20.19;nan;99616.41;5024642;28;20073;-71
2023/12/19 04:36:18;;;;;;;106.63;71.75;;;;;;;20.61;nan;99623.38;5019403;28;20042;-71
2023/12/19 04:38:48;;;;;;;126.97;80.55;;;;;;;20.26;nan;99622.50;5019746;28;20096;-70
2023/12/19 04:41:17;;;;;;;123.32;77.80;;;;;;;20.17;nan;99621.22;5020923;28;20683;-71
2023/12/19 04:43:47;;;;;;;114.00;79.68;;;;;;;20.40;nan;99623.94;5017085;28;20049;-71
2023/12/19 04:46:17;;;;;;;125.63;79.88;;;;;;;19.68;nan;99617.84;5012462;28;20050;-70
2023/12/19 04:48:47;;;;;;;123.60;80.32;;;;;;;19.03;nan;99613.31;5027768;28;20432;-71
2023/12/19 04:51:18;;;;;;;125.05;80.40;;;;;;;19.84;nan;99616.34;5024387;28;20068;-71
2023/12/19 04:53:49;;;;;;;130.13;79.03;;;;;;;18.85;nan;99611.44;5024103;28;20061;-71
2023/12/19 04:56:19;;;;;;;121.57;77.38;;;;;;;18.75;nan;99611.97;5025714;28;20060;-72
2023/12/19 04:58:48;;;;;;;117.40;78.95;;;;;;;18.74;nan;99615.69;5018354;28;20045;-71
2023/12/19 08:38:50;;;;;;;47.13;34.97;;;;;;;20.42;nan;99357.31;5085493;27;20485;-73
2023/12/19 08:41:20;;;;;;;53.95;36.28;;;;;;;20.47;nan;99352.03;5079317;28;20114;-73
2023/12/19 08:43:49;;;;;;;54.10;36.50;;;;;;;20.53;nan;99351.88;5075101;28;20054;-74
2023/12/19 08:46:19;;;;;;;49.45;35.42;;;;;;;20.41;nan;99343.03;5075702;28;20055;-69
2023/12/19 08:48:53;;;;;;;45.28;34.65;;;;;;;20.45;nan;99346.06;5078392;28;20052;-70
2023/12/19 08:51:22;;;;;;;;;;;;;;;20.44;nan;99345.28;5077634;28;20040;-75
2023/12/19 08:53:51;;;;;;;57.42;36.33;;;;;;;20.45;nan;99330.75;5079129;28;19923;-72
2023/12/19 08:56:21;;;;;;;48.90;36.05;;;;;;;20.44;nan;99334.50;5076609;28;20054;-71
2023/12/19 08:58:50;;;;;;;48.83;32.35;;;;;;;20.39;nan;99333.59;5077351;28;20155;-69
2023/12/19 09:01:20;;;;;;;55.08;34.60;;;;;;;20.36;nan;99329.50;5074867;28;20443;-69
2023/12/19 09:03:49;;;;;;;46.80;33.95;;;;;;;20.35;nan;99327.06;5077284;28;20048;-69
2023/12/19 09:06:20;;;;;;;44.25;32.85;;;;;;;20.43;nan;99330.19;5077118;28;20435;-71
2023/12/19 09:08:49;;;;;;;45.00;32.80;;;;;;;20.43;nan;99322.09;5077099;28;20107;-71
2023/12/19 09:11:19;;;;;;;48.95;34.92;;;;;;;20.46;nan;99321.63;5074480;28;20048;-71
2023/12/19 09:13:49;;;;;;;43.80;34.05;;;;;;;20.45;nan;99321.84;5076227;28;20041;-68
2023/12/19 09:16:19;;;;;;;55.95;33.72;;;;;;;20.50;nan;99321.94;5074877;28;20137;-67
2023/12/19 09:18:48;;;;;;;48.63;34.17;;;;;;;20.48;nan;99327.59;5076583;28;20041;-68
2023/12/19 09:21:18;;;;;;;51.85;33.88;;;;;;;20.35;nan;99325.19;5073875;28;20478;-68
2023/12/19 09:23:47;;;;;;;45.03;33.10;;;;;;;20.37;nan;99327.63;5077664;28;20040;-67
2023/12/19 09:26:17;;;;;;;47.00;32.15;;;;;;;20.40;nan;99325.25;5073534;28;20063;-67
2023/12/19 09:28:46;;;;;;;43.58;31.35;;;;;;;20.36;nan;99312.53;5073813;28;20065;-67
2023/12/19 09:31:19;;;;;;;;;;;;;;;20.32;nan;99308.69;5078734;28;20056;-67
2023/12/19 09:33:48;;;;;;;50.72;31.50;;;;;;;20.31;nan;99307.91;5073497;28;19924;-67
2023/12/19 09:36:22;;;;;;;41.40;29.88;;;;;;;20.39;nan;99312.06;5041195;28;20064;-67
2023/12/19 09:38:52;;;;;;;41.42;28.73;;;;;;;20.31;nan;99315.97;5063224;28;20751;-66
2023/12/19 09:41:21;;;;;;;38.30;27.70;;;;;;;20.29;nan;99306.47;5065192;28;21531;-66
2023/12/19 09:43:51;;;;;;;37.22;27.58;;;;;;;20.22;nan;99306.63;5049096;28;20045;-66
2023/12/19 09:46:33;;;;;;;34.22;25.17;;;;;;;20.20;nan;99300.66;5065285;28;20131;-66
2023/12/19 09:49:09;;;;;;;42.10;25.33;;;;;;;20.25;nan;99298.06;5065141;28;20163;-66
2023/12/19 09:51:43;;;;;;;33.30;25.25;;;;;;;20.18;nan;99300.06;5065537;28;20124;-66
2023/12/19 09:54:13;;;;;;;34.53;23.70;;;;;;;20.22;nan;99289.66;5062364;28;20044;-66
2023/12/19 09:56:43;;;;;;;37.38;24.65;;;;;;;20.20;nan;99289.88;5059195;28;20104;-67
2023/12/19 09:59:16;;;;;;;35.08;24.58;;;;;;;20.15;nan;99277.16;5064601;28;20080;-67
2023/12/19 10:01:46;;;;;;;37.60;22.70;;;;;;;20.19;nan;99289.06;5060435;28;20056;-66
2023/12/19 10:04:17;;;;;;;36.85;22.20;;;;;;;20.22;nan;99279.72;5065043;28;20062;-66
2023/12/19 10:06:58;;;;;;;33.60;21.52;;;;;;;20.29;nan;99275.00;5064787;28;20052;-69
2023/12/19 10:09:28;;;;;;;32.42;19.67;;;;;;;20.20;nan;99287.19;5053329;28;20051;-66
2023/12/19 10:12:10;;;;;;;26.60;17.85;;;;;;;20.13;nan;99284.66;5062091;28;20478;-66
2023/12/19 10:14:40;;;;;;;28.98;17.70;;;;;;;20.09;nan;99277.31;5063395;28;20475;-66
2023/12/19 10:17:22;;;;;;;36.17;19.55;;;;;;;20.12;nan;99284.91;5062691;28;20389;-66
2023/12/19 10:19:51;;;;;;;25.35;16.17;;;;;;;20.15;nan;99287.91;5080284;28;20040;-66
2023/12/19 10:22:21;;;;;;;23.77;15.65;;;;;;;20.10;nan;99290.50;5064751;28;20366;-66
2023/12/19 10:25:00;;;;;;;26.42;15.15;;;;;;;20.08;nan;99294.50;5065314;28;20148;-66
2023/12/19 10:27:30;;;;;;;24.52;14.80;;;;;;;19.98;nan;99296.97;5063964;28;20040;-66
2023/12/19 10:30:17;;;;;;;27.00;14.23;;;;;;;19.93;nan;99288.81;5061629;28;20044;-67
2023/12/19 10:32:47;;;;;;;25.77;13.52;;;;;;;19.91;nan;99286.38;5044633;28;20132;-67
2023/12/19 10:35:17;;;;;;;20.67;13.70;;;;;;;19.85;nan;99291.88;5046772;28;20044;-67
2023/12/19 10:37:47;;;;;;;22.40;12.90;;;;;;;19.80;nan;99291.75;5063780;28;20037;-66
2023/12/19 10:40:19;;;;;;;24.80;14.57;;;;;;;19.80;nan;99287.22;5063460;28;20698;-67
2023/12/19 10:42:56;;;;;;;23.60;14.25;;;;;;;19.75;nan;99289.78;5063231;28;20721;-67
2023/12/19 10:45:26;;;;;;;29.67;15.70;;;;;;;19.76;nan;99290.63;5062964;28;20325;-68
2023/12/19 10:47:56;;;;;;;22.60;14.23;;;;;;;19.77;nan;99286.88;5063545;28;20066;-67
2023/12/19 10:50:27;;;;;;;23.38;14.70;;;;;;;19.65;nan;99284.19;5061830;28;20044;-66
2023/12/19 10:53:05;;;;;;;26.95;14.30;;;;;;;19.58;nan;99278.97;5062553;28;20102;-66
2023/12/19 10:55:41;;;;;;;29.17;15.85;;;;;;;19.56;nan;99274.91;5062501;28;20040;-66
2023/12/19 10:58:19;;;;;;;27.27;16.17;;;;;;;19.59;nan;99280.59;5063218;28;20053;-65
2023/12/19 11:00:51;;;;;;;26.38;15.80;;;;;;;19.57;nan;99277.31;5061978;28;20037;-66
2023/12/19 11:03:33;;;;;;;24.98;14.43;;;;;;;19.57;nan;99276.50;5064008;28;20333;-66
2023/12/19 11:06:09;;;;;;;22.20;15.43;;;;;;;19.57;nan;99279.19;5062971;28;20143;-66
2023/12/19 11:08:44;;;;;;;24.98;15.32;;;;;;;19.48;nan;99278.75;5064118;28;20053;-67
2023/12/19 11:11:24;;;;;;;22.77;15.18;;;;;;;19.38;nan;99272.31;5062952;28;20106;-66
2023/12/19 11:13:54;;;;;;;20.98;15.18;;;;;;;19.42;nan;99268.91;5064505;28;20041;-66
2023/12/19 11:16:48;;;;;;;27.05;16.45;;;;;;;19.32;nan;99267.88;5059941;28;20098;-67
2023/12/19 11:19:27;;;;;;;26.23;16.20;;;;;;;19.24;nan;99266.38;5061115;28;20052;-67
2023/12/19 11:22:19;;;;;;;27.73;16.25;;;;;;;19.14;nan;99271.50;5062005;28;20151;-67
2023/12/19 11:24:48;;;;;;;29.33;17.80;;;;;;;19.01;nan;99261.81;5061321;28;20052;-67
2023/12/19 11:27:31;;;;;;;35.20;17.65;;;;;;;18.87;nan;99255.03;5063496;28;20122;-67
2023/12/19 11:30:01;;;;;;;26.30;16.70;;;;;;;18.88;nan;99251.31;5062663;28;20395;-66
2023/12/19 11:32:30;;;;;;;35.25;18.35;;;;;;;18.71;nan;99245.81;5062712;28;20488;-67
2023/12/19 11:35:13;;;;;;;26.27;17.13;;;;;;;18.71;nan;99251.19;5062566;28;20059;-67
2023/12/19 11:37:46;;;;;;;30.25;18.70;;;;;;;18.68;nan;99251.63;5063101;28;20040;-67
2023/12/19 11:40:53;;;;;;;29.92;18.20;;;;;;;18.47;nan;99246.78;5064013;28;20052;-66
2023/12/19 11:43:28;;;;;;;32.28;17.60;;;;;;;18.26;nan;99250.81;5054612;28;20052;-66
2023/12/19 11:46:17;;;;;;;37.33;18.02;;;;;;;18.10;nan;99247.97;5063195;28;20098;-66
2023/12/19 11:48:51;;;;;;;27.20;17.25;;;;;;;17.88;nan;99250.28;5063636;28;20055;-66
2023/12/19 11:51:53;;;;;;;36.42;18.42;;;;;;;17.77;nan;99241.16;5057812;28;20670;-67
2023/12/19 11:54:24;;;;;;;39.78;19.33;;;;;;;17.59;nan;99237.69;5057286;28;20542;-66
2023/12/19 11:57:01;;;;;;;32.78;19.23;;;;;;;17.51;nan;99244.13;5060753;28;20048;-66
2023/12/19 11:59:48;;;;;;;31.98;18.30;;;;;;;17.33;nan;99234.25;5061463;28;20044;-67
2023/12/19 12:02:37;;;;;;;27.60;18.85;;;;;;;17.18;nan;99227.59;5060894;28;20041;-66
2023/12/19 12:05:16;;;;;;;36.58;19.08;;;;;;;17.11;nan;99230.34;5059318;28;20135;-67
2023/12/19 12:07:53;;;;;;;42.17;19.45;;;;;;;16.92;nan;99228.69;5054641;28;20059;-65
2023/12/19 12:10:23;;;;;;;34.55;20.00;;;;;;;16.87;nan;99223.16;5046576;28;20059;-65
2023/12/19 12:12:55;;;;;;;35.80;20.58;;;;;;;16.74;nan;99225.97;5061946;28;20190;-65
2023/12/19 12:15:26;;;;;;;41.75;19.95;;;;;;;16.72;nan;99228.88;5060999;28;20059;-65
2023/12/19 12:18:04;;;;;;;35.47;19.83;;;;;;;16.66;nan;99223.56;5061835;28;20040;-66
2023/12/19 12:20:34;;;;;;;38.13;21.55;;;;;;;16.56;nan;99224.03;5057212;28;20041;-66
2023/12/19 12:23:04;;;;;;;38.20;22.08;;;;;;;16.41;nan;99220.88;5059346;28;20047;-64
2023/12/19 12:25:34;;;;;;;40.78;21.88;;;;;;;16.35;nan;99221.72;5058845;28;20040;-63
2023/12/19 12:28:17;;;;;;;35.22;21.88;;;;;;;16.34;nan;99215.56;5061425;28;20167;-64
2023/12/19 12:30:47;;;;;;;39.15;22.77;;;;;;;16.26;nan;99212.31;5060998;28;20040;-64
2023/12/19 12:33:17;;;;;;;36.67;23.00;;;;;;;16.13;nan;99219.41;5061685;28;20690;-63
2023/12/19 12:35:46;;;;;;;41.55;22.55;;;;;;;16.04;nan;99225.22;5061266;28;20049;-64
2023/12/19 12:38:18;;;;;;;46.85;23.60;;;;;;;15.90;nan;99227.13;5062877;28;20044;-65
2023/12/19 12:41:01;;;;;;;47.22;24.63;;;;;;;15.72;nan;99225.16;5062052;28;20059;-64
2023/12/19 12:43:49;;;;;;;50.35;24.88;;;;;;;15.59;nan;99229.75;5055665;28;20048;-64
2023/12/19 12:46:21;;;;;;;49.35;24.70;;;;;;;15.68;nan;99229.31;5063020;28;20080;-64
2023/12/19 12:48:54;;;;;;;56.03;28.38;;;;;;;15.64;nan;99229.94;5060843;28;20865;-63
2023/12/19 12:51:24;;;;;;;42.15;26.55;;;;;;;15.46;nan;99232.44;5058766;28;20041;-65
2023/12/19 12:53:59;;;;;;;46.60;27.30;;;;;;;15.38;nan;99235.34;5057779;28;20053;-65
2023/12/19 12:56:31;;;;;;;48.83;30.00;;;;;;;15.34;nan;99237.63;5052811;28;20053;-63
2023/12/19 12:59:08;;;;;;;50.95;28.95;;;;;;;15.30;nan;99239.06;4799071;28;10001617;-66
2023/12/19 13:01:41;;;;;;;51.47;30.77;;;;;;;15.24;nan;99243.38;5053800;28;20254;-65
2023/12/19 13:04:11;;;;;;;45.95;28.10;;;;;;;15.28;nan;99241.94;5054778;28;20577;-65
2023/12/19 13:06:42;;;;;;;51.47;29.90;;;;;;;15.23;nan;99238.25;5057385;28;20539;-66
2023/12/19 13:09:13;;;;;;;48.42;30.85;;;;;;;15.21;nan;99235.81;5057933;28;20045;-64
2023/12/19 13:11:44;;;;;;;44.60;30.45;;;;;;;15.12;nan;99237.06;5056465;28;20053;-64
2023/12/19 13:14:15;;;;;;;54.58;32.95;;;;;;;15.22;nan;99244.63;5056335;28;20052;-65
2023/12/19 13:16:45;;;;;;;59.03;31.05;;;;;;;15.18;nan;99256.72;5060109;28;20047;-65
2023/12/19 13:19:15;;;;;;;63.05;31.17;;;;;;;14.97;nan;99255.13;5058054;28;20534;-64
2023/12/19 13:21:46;;;;;;;48.20;31.80;;;;;;;14.99;nan;99257.59;5062513;28;20088;-64
2023/12/19 13:24:17;;;;;;;61.20;33.53;;;;;;;15.00;nan;99257.38;4716141;28;10000525;-63
2023/12/19 13:26:49;;;;;;;58.42;31.00;;;;;;;14.94;nan;99260.06;5067389;28;20053;-62
2023/12/19 13:29:19;;;;;;;60.92;32.15;;;;;;;15.01;nan;99267.03;5062738;28;20045;-63
2023/12/19 13:31:49;;;;;;;59.13;33.08;;;;;;;14.74;nan;99268.88;5064979;28;20040;-63
2023/12/19 13:34:19;;;;;;;63.70;34.42;;;;;;;14.79;nan;99278.94;5062349;28;20053;-62
2023/12/19 13:36:48;;;;;;;59.58;34.00;;;;;;;14.76;nan;99280.19;5062600;28;20494;-63
2023/12/19 13:39:20;;;;;;;60.30;35.55;;;;;;;14.65;nan;99279.94;5063710;28;20426;-63
2023/12/19 13:41:52;;;;;;;66.82;34.92;;;;;;;14.64;nan;99287.16;5060459;28;20048;-63
2023/12/19 13:44:21;;;;;;;72.47;39.65;;;;;;;14.68;nan;99284.91;5060874;28;20059;-64
2023/12/19 13:46:52;;;;;;;72.70;40.78;;;;;;;14.67;nan;99286.72;5062492;28;20131;-62
2023/12/19 13:49:21;;;;;;;63.88;37.30;;;;;;;14.67;nan;99288.56;5059707;28;20048;-63
2023/12/19 13:51:50;;;;;;;60.83;38.55;;;;;;;14.63;nan;99292.69;5064168;28;20051;-64
2023/12/19 13:54:21;;;;;;;73.60;40.38;;;;;;;14.55;nan;99300.88;5061686;28;20121;-64
2023/12/19 13:56:51;;;;;;;72.35;41.25;;;;;;;14.56;nan;99299.88;5064002;28;20376;-64
2023/12/19 13:59:23;;;;;;;70.43;40.35;;;;;;;14.41;nan;99304.53;5057585;28;20045;-64
2023/12/19 14:01:53;;;;;;;72.07;39.78;;;;;;;14.51;nan;99304.97;5061946;28;20250;-64
2023/12/19 14:04:25;;;;;;;72.32;39.60;;;;;;;14.29;nan;99302.41;5060032;28;20044;-64
2023/12/19 14:06:55;;;;;;;70.80;38.90;;;;;;;14.31;nan;99300.38;5062716;28;20236;-64
2023/12/19 14:09:25;;;;;;;76.43;40.05;;;;;;;14.36;nan;99299.81;5057946;28;20048;-64
2023/12/19 14:11:55;;;;;;;70.40;38.65;;;;;;;14.17;nan;99309.34;5060183;28;20477;-63
2023/12/19 14:14:25;;;;;;;78.15;39.05;;;;;;;14.28;nan;99299.97;5058993;28;20052;-64
2023/12/19 14:16:56;;;;;;;76.72;40.53;;;;;;;14.21;nan;99305.28;5062324;28;20382;-63
2023/12/19 14:19:26;;;;;;;73.07;39.08;;;;;;;14.32;nan;99304.69;5060968;28;20608;-63
2023/12/19 14:21:56;;;;;;;77.30;40.55;;;;;;;14.23;nan;99305.91;5061009;28;20048;-63
2023/12/19 14:24:25;;;;;;;84.18;43.08;;;;;;;14.17;nan;99305.88;5060524;28;20155;-64
2023/12/19 14:26:56;;;;;;;77.28;41.67;;;;;;;14.10;nan;99305.03;5061778;28;20041;-63
2023/12/19 14:29:26;;;;;;;76.47;45.78;;;;;;;14.27;nan;99306.31;5060904;28;20071;-63
2023/12/19 14:31:57;;;;;;;66.85;40.75;;;;;;;14.23;nan;99310.41;5045264;28;20059;-63
2023/12/19 14:34:27;;;;;;;74.15;44.72;;;;;;;14.07;nan;99313.44;5061805;28;20430;-63
2023/12/19 14:36:57;;;;;;;88.30;51.25;;;;;;;14.17;nan;99305.88;5046756;28;20658;-63
2023/12/19 14:39:27;;;;;;;90.32;55.38;;;;;;;14.07;nan;99313.44;5055165;28;20143;-63
2023/12/19 14:41:56;;;;;;;87.90;54.13;;;;;;;14.19;nan;99310.00;5062848;28;20040;-63
2023/12/19 14:44:26;;;;;;;90.90;55.55;;;;;;;14.05;nan;99310.97;5059099;28;20059;-63
2023/12/19 14:46:55;;;;;;;91.03;53.42;;;;;;;14.01;nan;99312.38;5059664;28;20053;-63
2023/12/19 14:49:25;;;;;;;91.78;52.85;;;;;;;13.94;nan;99311.53;5061743;28;20048;-63
2023/12/19 14:51:54;;;;;;;83.57;48.65;;;;;;;13.98;nan;99312.81;5064131;28;20131;-63
2023/12/19 14:54:24;;;;;;;88.60;50.63;;;;;;;13.98;nan;99317.31;5061297;28;20044;-63
2023/12/19 14:56:55;;;;;;;74.35;47.83;;;;;;;13.92;nan;99313.59;5064062;28;20049;-63
2023/12/19 14:59:24;;;;;;;82.70;48.80;;;;;;;13.97;nan;99316.47;5060481;28;20036;-63
2023/12/19 15:01:56;;;;;;;80.43;52.00;;;;;;;13.91;nan;99314.59;5063676;28;20044;-63
2023/12/19 15:04:27;;;;;;;91.80;55.95;;;;;;;13.94;nan;99316.84;5061619;28;20217;-65
2023/12/19 15:06:56;;;;;;;79.43;51.58;;;;;;;14.03;nan;99325.53;5059091;28;20064;-63
2023/12/19 15:09:26;;;;;;;89.22;52.28;;;;;;;14.06;nan;99327.78;5060717;28;20055;-63
2023/12/19 15:11:56;;;;;;;88.38;52.15;;;;;;;14.08;nan;99328.38;5063860;28;20342;-63
2023/12/19 15:14:26;;;;;;;82.78;49.67;;;;;;;14.22;nan;99340.72;5058912;28;20695;-63
2023/12/19 15:16:55;;;;;;;80.20;49.92;;;;;;;14.04;nan;99335.13;5060974;28;20123;-64
2023/12/19 15:19:25;;;;;;;74.70;48.20;;;;;;;14.06;nan;99336.59;5062021;28;20435;-65
2023/12/19 15:21:55;;;;;;;82.30;47.95;;;;;;;14.15;nan;99334.56;5059500;28;20056;-62
2023/12/19 15:24:26;;;;;;;74.63;47.65;;;;;;;14.19;nan;99349.94;5058182;28;20051;-62
2023/12/19 15:26:57;;;;;;;77.70;47.30;;;;;;;14.15;nan;99348.72;5062384;28;20050;-62
2023/12/19 15:29:27;;;;;;;81.32;47.90;;;;;;;14.12;nan;99348.25;5041541;28;20049;-67